KSKX

Taos Regional Airport

Taos, New Mexico, USA
METAR KSKX 250456Z AUTO 09005KT 10SM CLR 12/M08 A3027 RMK AO2 SLP185 T01171083 $
Observed Flight Rules
May-25 @ 04:56 UTC (29 minutes ago) Visual Flight Rules
Wind Visibility Clouds
90° at 5 knots 10 miles
  • Clear skies
Temperatures Readings
Current 12°C / 54°F
Dewpoint -8°C / 18°F
Humidity 24%
Altimeter 30.27" Hg
Pressure 1018.5 hPa
Elevation 2161
METAR KSKX 250456Z AUTO 09005KT 10SM CLR 12/M08 A3027 RMK AO2 SLP185 T01171083 $
Observed Flight Rules
May-25 @ 04:56 UTC
(29 minutes ago)
VFR
Wind Visibility
90° at 5 knots 10 miles
Clouds
  • Clear skies
Temperature Dewpoint
12°C / 54°F -8°C / 18°F
Humidity Altimeter Pressure
24% 30.27" Hg 1018.5 hPa